createdAt,value
2019-03-27T00:01:53.048Z,19.73
2019-03-27T00:04:24.667Z,18.95
2019-03-27T00:06:58.835Z,17.98
2019-03-27T00:09:32.931Z,15.05
2019-03-27T00:12:07.181Z,14.35
2019-03-27T00:14:41.305Z,20.35
2019-03-27T00:17:15.851Z,20.50
2019-03-27T00:19:49.838Z,20.97
2019-03-27T00:22:23.797Z,20.20
2019-03-27T00:24:59.136Z,18.25
2019-03-27T00:27:36.160Z,24.85
2019-03-27T00:30:11.157Z,57.30
2019-03-27T00:32:45.304Z,59.30
2019-03-27T00:35:20.090Z,42.35
2019-03-27T00:37:54.175Z,28.23
2019-03-27T00:40:29.464Z,17.48
2019-03-27T00:43:03.486Z,15.95
2019-03-27T00:45:37.537Z,17.87
2019-03-27T00:48:11.636Z,23.12
2019-03-27T00:50:47.291Z,23.83
2019-03-27T00:53:21.308Z,16.77
2019-03-27T00:55:55.349Z,16.20
2019-03-27T00:58:29.900Z,17.98
2019-03-27T01:01:16.681Z,18.80
2019-03-27T01:03:52.292Z,26.30
2019-03-27T01:06:26.445Z,25.30
2019-03-27T01:09:00.507Z,24.07
2019-03-27T01:11:36.078Z,28.38
2019-03-27T01:14:10.203Z,28.23
2019-03-27T01:16:44.878Z,31.12
2019-03-27T01:19:19.033Z,45.58
2019-03-27T01:21:54.554Z,36.60
2019-03-27T01:24:29.533Z,49.23
2019-03-27T01:27:04.571Z,48.10
2019-03-27T01:29:38.686Z,56.85
2019-03-27T01:32:12.701Z,62.27
2019-03-27T01:34:46.746Z,69.82
2019-03-27T01:37:22.447Z,83.90
2019-03-27T01:40:03.463Z,85.07
2019-03-27T01:42:37.542Z,85.42
2019-03-27T01:45:11.635Z,79.22
2019-03-27T01:47:45.686Z,69.20
2019-03-27T01:50:21.412Z,60.38
2019-03-27T01:52:56.971Z,54.95
2019-03-27T01:55:31.051Z,38.08
2019-03-27T01:58:05.117Z,43.52
2019-03-27T02:00:39.706Z,38.02
2019-03-27T02:03:16.584Z,39.60
2019-03-27T02:05:50.730Z,48.85
2019-03-27T02:08:24.809Z,42.78
2019-03-27T02:10:58.894Z,78.00
2019-03-27T02:13:33.573Z,50.45
2019-03-27T02:16:07.684Z,37.53
2019-03-27T02:18:44.288Z,34.75
2019-03-27T02:21:18.472Z,38.08
2019-03-27T02:23:53.558Z,39.75
2019-03-27T02:26:29.794Z,47.85
2019-03-27T02:29:05.921Z,67.08
2019-03-27T02:31:54.028Z,62.33
2019-03-27T02:34:28.138Z,45.43
2019-03-27T02:37:03.327Z,43.13
2019-03-27T02:39:43.515Z,56.60
2019-03-27T02:45:20.054Z,38.38
2019-03-27T02:47:54.312Z,33.90
2019-03-27T02:50:29.714Z,36.10
2019-03-27T02:53:05.789Z,35.38
2019-03-27T02:55:44.316Z,37.05
2019-03-27T02:58:18.469Z,36.50
2019-03-27T03:00:52.616Z,36.10
2019-03-27T03:03:29.051Z,42.40
2019-03-27T03:06:03.191Z,52.98
2019-03-27T03:08:44.192Z,57.50
2019-03-27T03:11:18.317Z,55.10
2019-03-27T03:13:52.697Z,53.87
2019-03-27T03:16:41.241Z,39.88
2019-03-27T03:19:02.572Z,44.77
2019-03-27T03:21:37.017Z,49.65
2019-03-27T03:24:11.134Z,45.40
2019-03-27T03:26:45.247Z,50.78
2019-03-27T03:29:19.566Z,47.90
2019-03-27T03:32:22.514Z,51.10
2019-03-27T03:35:13.797Z,46.45
2019-03-27T03:48:10.038Z,42.75
2019-03-27T05:42:11.021Z,60.95
2019-03-27T05:44:53.135Z,75.40
2019-03-27T05:47:29.927Z,85.10
2019-03-27T05:50:26.891Z,70.72
2019-03-27T05:52:52.024Z,78.70
2019-03-27T05:58:30.218Z,85.40
2019-03-27T06:01:04.735Z,79.35
2019-03-27T06:03:39.095Z,73.60
2019-03-27T06:06:13.460Z,64.70
2019-03-27T06:08:47.816Z,77.10
2019-03-27T06:11:22.191Z,60.40
2019-03-27T06:13:56.592Z,57.73
2019-03-27T06:16:31.063Z,59.63
2019-03-27T06:19:23.190Z,57.08
2019-03-27T06:21:57.448Z,59.85
2019-03-27T06:24:32.580Z,44.63
2019-03-27T06:27:10.624Z,41.20
2019-03-27T06:29:45.974Z,41.73
2019-03-27T06:32:20.240Z,44.50
2019-03-27T06:34:54.648Z,38.63
2019-03-27T06:37:33.519Z,32.05
2019-03-27T06:40:09.427Z,29.85
2019-03-27T06:42:45.747Z,33.08
2019-03-27T06:45:20.094Z,35.15
2019-03-27T06:47:54.261Z,33.35
2019-03-27T06:50:28.899Z,33.88
2019-03-27T06:53:07.094Z,33.08
2019-03-27T06:55:43.602Z,32.15
2019-03-27T06:58:17.836Z,29.20
2019-03-27T07:00:52.468Z,25.57
2019-03-27T07:03:27.061Z,22.80
2019-03-27T07:06:01.196Z,24.25
2019-03-27T07:08:35.222Z,24.18
2019-03-27T07:11:09.414Z,21.30
2019-03-27T07:13:43.713Z,21.05
2019-03-27T07:16:17.848Z,29.75
2019-03-27T07:18:52.139Z,21.70
2019-03-27T07:21:26.257Z,26.97
2019-03-27T07:24:00.426Z,25.27
2019-03-27T07:26:34.659Z,23.35
2019-03-27T07:29:08.801Z,19.62
2019-03-27T07:31:42.800Z,23.67
2019-03-27T07:34:17.270Z,26.55
2019-03-27T07:36:51.696Z,15.63
2019-03-27T07:39:25.743Z,28.07
2019-03-27T07:41:59.786Z,38.95
2019-03-27T07:44:35.254Z,29.65
2019-03-27T07:47:09.426Z,19.80
2019-03-27T07:49:43.588Z,90.30
2019-03-27T07:52:17.654Z,46.88
2019-03-27T07:54:51.872Z,39.58
2019-03-27T07:57:26.096Z,52.67
2019-03-27T08:00:00.354Z,24.18
2019-03-27T08:02:34.517Z,47.15
2019-03-27T08:05:09.132Z,43.20
2019-03-27T08:07:44.636Z,20.15
2019-03-27T08:10:19.004Z,16.87
2019-03-27T08:12:53.787Z,26.77
2019-03-27T08:15:27.832Z,22.35
2019-03-27T08:18:01.927Z,13.13
2019-03-27T08:20:36.298Z,19.90
2019-03-27T08:23:11.025Z,8.50
2019-03-27T08:25:45.406Z,9.65
2019-03-27T08:28:19.488Z,9.88
2019-03-27T08:30:55.342Z,11.85
2019-03-27T08:33:29.593Z,9.20
2019-03-27T08:36:03.798Z,14.58
2019-03-27T08:38:38.494Z,11.68
2019-03-27T08:41:12.542Z,12.63
2019-03-27T08:43:46.646Z,11.70
2019-03-27T08:46:20.687Z,11.33
2019-03-27T08:48:54.782Z,6.65
2019-03-27T08:51:29.295Z,7.85
2019-03-27T08:54:03.877Z,11.33
2019-03-27T08:56:37.948Z,9.40
2019-03-27T08:59:12.046Z,11.10
2019-03-27T09:01:46.155Z,15.58
2019-03-27T09:04:20.511Z,15.83
2019-03-27T09:06:54.539Z,6.58
2019-03-27T09:09:28.899Z,7.00
2019-03-27T09:12:03.503Z,9.35
2019-03-27T09:14:37.700Z,8.30
2019-03-27T09:17:11.796Z,11.73
2019-03-27T09:19:46.245Z,13.32
2019-03-27T09:22:20.372Z,7.78
2019-03-27T09:24:54.557Z,11.83
2019-03-27T09:27:28.934Z,5.00
2019-03-27T09:30:03.087Z,10.82
2019-03-27T09:32:37.568Z,6.15
2019-03-27T09:35:11.705Z,9.85
2019-03-27T09:37:45.834Z,6.22
2019-03-27T09:40:19.863Z,11.95
2019-03-27T09:42:53.904Z,7.80
2019-03-27T09:45:27.947Z,7.40
2019-03-27T09:48:02.046Z,4.85
2019-03-27T09:50:36.126Z,7.33
2019-03-27T09:53:21.268Z,10.08
2019-03-27T09:55:55.443Z,6.33
2019-03-27T09:58:29.545Z,17.75
2019-03-27T10:01:08.295Z,7.42
2019-03-27T10:03:42.391Z,8.40
2019-03-27T10:06:17.853Z,6.10
2019-03-27T10:08:52.491Z,6.70
2019-03-27T10:11:26.888Z,8.25
2019-03-27T10:14:00.995Z,9.60
2019-03-27T10:16:35.174Z,6.35
2019-03-27T10:19:09.774Z,9.08
2019-03-27T10:21:44.063Z,5.75
2019-03-27T10:24:18.178Z,5.33
2019-03-27T10:26:52.504Z,9.15
2019-03-27T10:29:26.482Z,11.83
2019-03-27T10:32:00.954Z,10.58
2019-03-27T10:34:34.946Z,10.08
2019-03-27T10:37:09.340Z,5.97
2019-03-27T10:39:43.445Z,6.80
2019-03-27T10:42:17.505Z,8.45
2019-03-27T10:44:51.640Z,8.25
2019-03-27T10:47:27.758Z,7.37
2019-03-27T10:50:01.943Z,11.40
2019-03-27T10:52:35.998Z,9.28
2019-03-27T10:55:10.005Z,7.92
2019-03-27T10:57:45.595Z,8.78
2019-03-27T11:00:20.198Z,7.75
2019-03-27T11:02:54.281Z,8.23
2019-03-27T11:05:29.261Z,8.43
2019-03-27T11:08:03.180Z,7.25
2019-03-27T11:10:37.279Z,8.58
2019-03-27T11:13:11.360Z,10.08
2019-03-27T11:15:45.324Z,8.28
2019-03-27T11:18:19.333Z,12.82
2019-03-27T11:20:53.769Z,8.85
2019-03-27T11:23:28.934Z,7.78
2019-03-27T11:26:03.968Z,4.30
2019-03-27T11:28:38.123Z,6.00
2019-03-27T11:31:12.544Z,4.12
2019-03-27T11:33:46.533Z,6.97
2019-03-27T11:36:22.942Z,4.72
2019-03-27T11:38:56.997Z,7.50
2019-03-27T11:41:31.059Z,6.72
2019-03-27T11:44:05.221Z,17.77
2019-03-27T11:46:39.259Z,5.72
2019-03-27T11:49:13.228Z,9.70
2019-03-27T11:51:47.216Z,4.70
2019-03-27T11:54:21.263Z,21.55
2019-03-27T11:56:55.614Z,8.95
2019-03-27T11:59:29.637Z,10.93
2019-03-27T12:02:03.610Z,22.77
2019-03-27T12:04:37.754Z,9.03
2019-03-27T12:07:11.775Z,8.90
2019-03-27T12:09:45.795Z,7.95
2019-03-27T12:12:19.956Z,23.60
2019-03-27T12:14:54.559Z,10.20
2019-03-27T12:17:28.639Z,44.60
2019-03-27T12:20:02.933Z,46.75
2019-03-27T12:22:37.531Z,13.90
2019-03-27T12:25:11.586Z,51.80
2019-03-27T12:27:45.626Z,47.15
2019-03-27T12:30:19.670Z,30.15
2019-03-27T12:32:53.975Z,12.70
2019-03-27T12:35:28.023Z,12.03
2019-03-27T12:38:04.416Z,17.25
2019-03-27T12:40:39.612Z,21.33
2019-03-27T12:43:13.752Z,9.70
2019-03-27T12:45:47.943Z,39.10
2019-03-27T12:48:22.012Z,30.25
2019-03-27T12:50:56.443Z,51.77
2019-03-27T12:53:30.620Z,28.55
2019-03-27T12:56:04.772Z,9.78
2019-03-27T12:58:38.815Z,10.03
2019-03-27T13:01:13.310Z,33.92
2019-03-27T13:03:48.338Z,29.18
2019-03-27T13:06:22.508Z,29.27
2019-03-27T13:08:56.672Z,34.45
2019-03-27T13:11:30.681Z,13.20
2019-03-27T13:14:07.710Z,13.43
2019-03-27T13:16:42.860Z,19.57
2019-03-27T13:19:16.844Z,13.13
2019-03-27T13:21:52.057Z,6.22
2019-03-27T13:24:26.108Z,14.70
2019-03-27T13:27:00.195Z,22.93
2019-03-27T13:29:34.230Z,10.55
2019-03-27T13:32:08.346Z,11.68
2019-03-27T13:34:42.431Z,10.85
2019-03-27T13:37:17.106Z,7.90
2019-03-27T13:39:51.394Z,36.83
2019-03-27T13:42:25.919Z,27.25
2019-03-27T13:44:59.992Z,17.30
2019-03-27T13:47:34.239Z,11.68
2019-03-27T13:50:12.754Z,16.60
2019-03-27T13:52:45.260Z,11.83
2019-03-27T13:55:19.445Z,11.38
2019-03-27T13:57:53.568Z,13.98
2019-03-27T14:00:27.690Z,17.52
2019-03-27T14:03:01.925Z,19.77
2019-03-27T14:05:36.179Z,41.50
2019-03-27T14:08:10.245Z,47.48
2019-03-27T14:10:44.438Z,272.17
2019-03-27T14:13:18.689Z,74.97
2019-03-27T14:15:53.105Z,36.77
2019-03-27T14:18:27.168Z,98.90
2019-03-27T14:21:02.169Z,33.88
2019-03-27T14:23:36.578Z,87.47
2019-03-27T14:26:10.720Z,52.20
2019-03-27T14:28:44.733Z,20.57
2019-03-27T14:31:18.740Z,9.73
2019-03-27T14:33:52.887Z,9.28
2019-03-27T14:36:26.991Z,8.63
2019-03-27T14:39:00.962Z,20.95
2019-03-27T14:41:36.275Z,34.98
2019-03-27T14:44:10.783Z,22.17
2019-03-27T14:46:44.959Z,20.75
2019-03-27T14:49:19.141Z,16.95
2019-03-27T14:52:07.418Z,13.55
2019-03-27T14:54:29.970Z,71.70
2019-03-27T14:57:04.054Z,37.93
2019-03-27T14:59:38.237Z,16.97
2019-03-27T15:02:12.443Z,12.93
2019-03-27T15:04:46.778Z,60.48
2019-03-27T15:07:20.793Z,27.17
2019-03-27T15:09:54.817Z,56.98
2019-03-27T15:12:31.008Z,42.55
2019-03-27T15:15:05.307Z,44.93
2019-03-27T15:17:39.488Z,98.35
2019-03-27T15:20:13.690Z,28.77
2019-03-27T15:22:47.737Z,27.40
2019-03-27T15:25:21.797Z,31.35
2019-03-27T15:27:56.336Z,69.30
2019-03-27T15:30:30.535Z,158.12
2019-03-27T15:33:04.871Z,29.40
2019-03-27T15:35:39.345Z,23.62
2019-03-27T15:38:28.287Z,36.38
2019-03-27T15:41:11.311Z,40.78
2019-03-27T15:43:45.162Z,34.83
2019-03-27T15:46:20.770Z,43.78
2019-03-27T15:48:55.573Z,41.15
2019-03-27T15:51:29.788Z,29.63
2019-03-27T15:54:03.989Z,27.98
2019-03-27T15:56:38.590Z,60.85
2019-03-27T15:59:12.871Z,68.33
2019-03-27T16:01:48.150Z,34.83
2019-03-27T16:04:22.302Z,128.53
2019-03-27T16:06:56.530Z,109.72
2019-03-27T16:09:30.800Z,66.87
2019-03-27T16:12:05.074Z,69.32
2019-03-27T16:14:40.459Z,114.37
2019-03-27T16:17:14.784Z,158.45
2019-03-27T16:19:48.981Z,126.15
2019-03-27T16:22:23.784Z,80.10
2019-03-27T16:24:57.820Z,102.15
2019-03-27T16:27:31.877Z,145.72
2019-03-27T16:30:10.688Z,108.27
2019-03-27T16:33:03.818Z,66.70
2019-03-27T16:35:38.046Z,72.50
2019-03-27T16:38:12.088Z,70.37
2019-03-27T16:41:15.384Z,62.83
2019-03-27T16:44:00.517Z,51.70
2019-03-27T16:46:41.369Z,127.65
2019-03-27T16:49:27.004Z,70.80
2019-03-27T16:52:01.229Z,79.55
2019-03-27T16:54:36.845Z,69.25
2019-03-27T16:57:16.148Z,93.85
2019-03-27T16:59:50.335Z,72.15
2019-03-27T17:02:24.402Z,82.62
2019-03-27T17:05:00.832Z,61.10
2019-03-27T17:07:34.804Z,97.88
2019-03-27T17:10:09.377Z,88.22
2019-03-27T17:12:49.403Z,79.40
2019-03-27T17:15:32.453Z,146.57
2019-03-27T17:18:07.655Z,83.90
2019-03-27T17:20:42.869Z,84.90
2019-03-27T17:23:18.429Z,202.03
2019-03-27T17:25:52.762Z,131.22
2019-03-27T17:28:27.492Z,134.93
2019-03-27T17:31:02.167Z,136.20
2019-03-27T17:33:36.373Z,171.18
2019-03-27T17:36:10.425Z,114.00
2019-03-27T17:38:44.475Z,100.33
2019-03-27T17:41:19.043Z,87.67
2019-03-27T17:43:53.095Z,100.72
2019-03-27T17:46:27.563Z,76.72
2019-03-27T17:49:01.620Z,91.22
2019-03-27T17:51:38.843Z,122.02
2019-03-27T17:54:20.329Z,163.62
2019-03-27T17:56:53.128Z,59.95
2019-03-27T17:59:27.492Z,95.22
2019-03-27T18:02:01.732Z,78.70
2019-03-27T18:04:35.879Z,56.45
2019-03-27T18:07:09.995Z,51.48
2019-03-27T18:09:43.995Z,80.50
2019-03-27T18:12:18.312Z,52.33
2019-03-27T18:14:52.391Z,58.63
2019-03-27T18:17:27.354Z,67.00
2019-03-27T18:20:01.377Z,78.67
2019-03-27T18:22:35.423Z,65.57
2019-03-27T18:25:09.503Z,42.10
2019-03-27T18:27:43.511Z,41.92
2019-03-27T18:30:17.913Z,42.80
2019-03-27T18:32:52.173Z,45.50
2019-03-27T18:35:27.845Z,44.13
2019-03-27T18:38:01.924Z,49.38
2019-03-27T18:40:36.495Z,57.43
2019-03-27T18:43:10.555Z,39.88
2019-03-27T18:45:44.598Z,56.02
2019-03-27T18:48:19.474Z,40.23
2019-03-27T18:50:53.883Z,51.42
2019-03-27T18:53:28.217Z,36.95
2019-03-27T18:56:02.408Z,50.08
2019-03-27T18:58:36.501Z,51.55
2019-03-27T19:01:11.084Z,47.27
2019-03-27T19:03:45.120Z,51.88
2019-03-27T19:06:19.344Z,64.75
2019-03-27T19:08:54.587Z,65.52
2019-03-27T19:11:59.452Z,64.30
2019-03-27T19:14:38.150Z,45.55
2019-03-27T19:17:12.670Z,120.13
2019-03-27T19:19:46.733Z,78.33
2019-03-27T19:22:22.260Z,53.25
2019-03-27T19:24:56.458Z,55.33
2019-03-27T19:27:30.481Z,35.48
2019-03-27T19:30:04.594Z,28.02
2019-03-27T19:32:38.651Z,53.02
2019-03-27T19:35:13.001Z,56.42
2019-03-27T19:37:47.241Z,44.70
2019-03-27T19:40:21.233Z,51.98
2019-03-27T19:42:56.769Z,54.00
2019-03-27T19:45:31.719Z,43.87
2019-03-27T19:48:05.861Z,55.45
2019-03-27T19:50:39.892Z,41.58
2019-03-27T19:53:14.029Z,39.03
2019-03-27T19:55:48.035Z,62.53
2019-03-27T19:58:22.055Z,51.08
2019-03-27T20:00:56.102Z,41.40
2019-03-27T20:03:30.109Z,37.50
2019-03-27T20:06:04.275Z,29.10
2019-03-27T20:08:38.428Z,24.02
2019-03-27T20:11:12.545Z,33.63
2019-03-27T20:13:46.803Z,28.57
2019-03-27T20:16:20.818Z,24.05
2019-03-27T20:18:54.947Z,30.25
2019-03-27T20:21:28.951Z,21.80
2019-03-27T20:24:02.966Z,19.52
2019-03-27T20:26:37.253Z,24.57
2019-03-27T20:29:11.259Z,24.15
2019-03-27T20:31:45.266Z,24.85
2019-03-27T20:34:19.275Z,21.77
2019-03-27T20:36:55.747Z,24.55
2019-03-27T20:39:29.876Z,27.32
2019-03-27T20:42:05.410Z,20.68
2019-03-27T20:44:39.755Z,28.80
2019-03-27T20:47:13.870Z,20.25
2019-03-27T20:49:47.998Z,30.55
2019-03-27T20:52:22.942Z,19.40
2019-03-27T20:54:57.058Z,25.85
2019-03-27T20:57:31.049Z,21.05
2019-03-27T21:00:05.644Z,18.70
2019-03-27T21:02:39.873Z,21.12
2019-03-27T21:05:13.844Z,22.85
2019-03-27T21:07:48.038Z,20.80
2019-03-27T21:10:22.055Z,26.00
2019-03-27T21:12:55.969Z,27.77
2019-03-27T21:15:29.971Z,26.85
2019-03-27T21:18:03.975Z,33.28
2019-03-27T21:20:37.957Z,29.67
2019-03-27T21:23:11.979Z,24.47
2019-03-27T21:25:45.984Z,40.23
2019-03-27T21:28:20.111Z,36.63
2019-03-27T21:30:55.261Z,21.05
2019-03-27T21:33:29.253Z,21.70
2019-03-27T21:36:03.260Z,25.88
2019-03-27T21:38:37.239Z,29.65
2019-03-27T21:41:11.240Z,21.30
2019-03-27T21:43:45.248Z,18.50
2019-03-27T21:46:19.226Z,17.65
2019-03-27T21:48:53.210Z,17.27
2019-03-27T21:51:27.127Z,23.22
2019-03-27T21:54:01.250Z,19.42
2019-03-27T21:56:35.158Z,17.77
2019-03-27T21:59:09.182Z,17.67
2019-03-27T22:01:43.176Z,20.10
2019-03-27T22:04:17.174Z,21.30
2019-03-27T22:06:51.192Z,21.48
2019-03-27T22:09:25.178Z,23.02
2019-03-27T22:11:59.189Z,35.48
2019-03-27T22:14:33.225Z,34.40
2019-03-27T22:17:07.194Z,23.12
2019-03-27T22:19:41.194Z,20.35
2019-03-27T22:22:15.161Z,14.10
2019-03-27T22:24:49.176Z,18.95
2019-03-27T22:27:23.157Z,16.82
2019-03-27T22:29:57.129Z,16.95
2019-03-27T22:32:31.099Z,15.13
2019-03-27T22:35:05.152Z,19.15
2019-03-27T22:37:39.121Z,19.37
2019-03-27T22:40:13.178Z,17.05
2019-03-27T22:42:47.026Z,16.75
2019-03-27T22:45:21.026Z,18.87
2019-03-27T22:47:55.022Z,15.72
2019-03-27T22:50:30.127Z,17.30
2019-03-27T22:53:04.179Z,15.93
2019-03-27T22:55:49.162Z,16.70
2019-03-27T22:58:13.891Z,16.40
2019-03-27T23:00:49.799Z,19.60
2019-03-27T23:03:23.895Z,17.45
2019-03-27T23:05:57.841Z,18.40
2019-03-27T23:08:31.757Z,22.50
2019-03-27T23:11:05.895Z,19.73
2019-03-27T23:13:39.866Z,17.40
2019-03-27T23:16:13.851Z,19.87
2019-03-27T23:18:47.908Z,21.10
2019-03-27T23:21:21.881Z,16.85
2019-03-27T23:23:55.981Z,18.67
2019-03-27T23:26:30.266Z,16.20
2019-03-27T23:29:04.269Z,16.48
2019-03-27T23:31:38.259Z,19.10
2019-03-27T23:34:12.230Z,21.20
2019-03-27T23:36:46.209Z,22.60
2019-03-27T23:39:21.138Z,29.18
2019-03-27T23:41:55.169Z,29.95
2019-03-27T23:44:29.123Z,24.37
2019-03-27T23:47:03.246Z,43.28
2019-03-27T23:49:37.225Z,34.63
2019-03-27T23:52:11.158Z,89.07
2019-03-27T23:54:45.148Z,35.80
2019-03-27T23:57:19.221Z,21.65
2019-03-27T23:59:53.300Z,24.23
